Time;durP1;ratioP1;P1;durP2;ratioP2;P2;SDS_P1;SDS_P2;PMS_P1;PMS_P2;Temp;Humidity;BMP_temperature;BMP_pressure;BME280_temperature;BME280_humidity;BME280_pressure;Samples;Min_cycle;Max_cycle;Signal;HPM_P1;HPM_P2
2023/08/12 00:01:34;;;;;;;17.00;9.20;;;;;;;;;;101571;293;24106;-33
2023/08/12 00:03:59;;;;;;;16.70;6.50;;;;;;;;;;101679;293;22571;-30
2023/08/12 00:06:26;;;;;;;10.00;6.30;;;;;;;;;;101616;293;22882;-35
2023/08/12 00:08:51;;;;;;;5.80;5.20;;;;;;;;;;101623;293;26307;-30
2023/08/12 00:11:17;;;;;;;12.40;7.50;;;;;;;;;;101460;293;22574;-34
2023/08/12 00:13:42;;;;;;;88.70;34.60;;;;;;;;;;101546;293;22849;-29
2023/08/12 00:16:08;;;;;;;12.00;8.20;;;;;;;;;;101709;293;24261;-33
2023/08/12 00:18:36;;;;;;;14.80;6.50;;;;;;;;;;101682;293;24182;-29
2023/08/12 00:21:06;;;;;;;5.90;5.40;;;;;;;;;;101697;293;24578;-29
2023/08/12 00:23:32;;;;;;;6.40;5.70;;;;;;;;;;101379;293;22569;-34
2023/08/12 00:26:00;;;;;;;76.20;47.70;;;;;;;;;;101372;293;24241;-34
2023/08/12 00:28:26;;;;;;;72.20;41.90;;;;;;;;;;101713;293;22582;-31
2023/08/12 00:30:51;;;;;;;22.30;9.90;;;;;;;;;;101611;293;22573;-34
2023/08/12 00:33:18;;;;;;;22.80;17.80;;;;;;;;;;101622;293;22639;-34
2023/08/12 00:35:43;;;;;;;18.70;13.10;;;;;;;;;;101713;293;25263;-34
2023/08/12 01:18:37;;;;;;;8.70;7.80;;;;;;;-100.14;19.20;19998.40;19587;338;8046027;-30
2023/08/12 01:21:03;;;;;;;9.30;7.10;;;;;;;-128.00;-1.00;-1.00;18472;295;7504567;-34
2023/08/12 01:23:29;;;;;;;9.50;7.20;;;;;;;-128.00;-1.00;-1.00;18901;294;7504845;-34
2023/08/12 01:25:56;;;;;;;8.20;6.60;;;;;;;-128.00;-1.00;-1.00;18901;293;7505167;-32
2023/08/12 01:28:22;;;;;;;10.00;6.30;;;;;;;-128.00;-1.00;-1.00;18910;293;7505219;-32
2023/08/12 01:30:57;;;;;;;13.30;7.00;;;;;;;-128.00;-1.00;-1.00;18921;293;7504872;-35
2023/08/12 01:33:41;;;;;;;14.00;7.00;;;;;;;-128.00;-1.00;-1.00;18515;293;7504787;-32
2023/08/12 01:36:10;;;;;;;14.10;10.90;;;;;;;-128.00;-1.00;-1.00;18487;293;7505087;-35
2023/08/12 01:38:35;;;;;;;12.10;8.60;;;;;;;-128.00;-1.00;-1.00;18520;316;7504474;-31
2023/08/12 01:41:01;;;;;;;10.60;8.10;;;;;;;-128.00;-1.00;-1.00;18904;329;7504614;-35
2023/08/12 01:43:28;;;;;;;13.00;7.30;;;;;;;-128.00;-1.00;-1.00;18904;293;7504589;-31
2023/08/12 01:45:54;;;;;;;15.10;10.30;;;;;;;-128.00;-1.00;-1.00;18904;293;7504290;-31
2023/08/12 01:48:22;;;;;;;27.00;12.60;;;;;;;-128.00;-1.00;-1.00;18918;293;7504853;-33
2023/08/12 01:50:48;;;;;;;10.80;8.10;;;;;;;-128.00;-1.00;-1.00;18506;293;7504700;-35
2023/08/12 01:53:14;;;;;;;10.60;7.90;;;;;;;-128.00;-1.00;-1.00;18489;293;7505856;-31
2023/08/12 01:55:43;;;;;;;10.30;9.10;;;;;;;-128.00;-1.00;-1.00;18519;293;7505932;-35
2023/08/12 01:58:08;;;;;;;10.50;8.40;;;;;;;-128.00;-1.00;-1.00;18538;294;7504810;-32
2023/08/12 02:00:34;;;;;;;8.10;7.30;;;;;;;-128.00;-1.00;-1.00;18497;293;7504974;-32
2023/08/12 02:03:00;;;;;;;8.20;7.40;;;;;;;-128.00;-1.00;-1.00;18918;293;7506243;-32
2023/08/12 02:05:26;;;;;;;8.40;6.80;;;;;;;-128.00;-1.00;-1.00;18940;300;7505325;-36
2023/08/12 02:07:52;;;;;;;10.70;6.80;;;;;;;-128.00;-1.00;-1.00;18939;293;7505199;-32
2023/08/12 02:10:18;;;;;;;17.00;6.90;;;;;;;-128.00;-1.00;-1.00;18860;293;7504847;-35
2023/08/12 02:12:44;;;;;;;5.90;5.20;;;;;;;-128.00;-1.00;-1.00;18928;293;7504723;-31
2023/08/12 02:15:11;;;;;;;4.60;3.80;;;;;;;-128.00;-1.00;-1.00;18923;293;7506070;-30
2023/08/12 02:17:37;;;;;;;5.60;4.20;;;;;;;-128.00;-1.00;-1.00;18895;293;7504631;-35
2023/08/12 02:20:04;;;;;;;7.20;3.80;;;;;;;-128.00;-1.00;-1.00;18910;293;7504892;-32
2023/08/12 02:22:30;;;;;;;5.40;2.60;;;;;;;-128.00;-1.00;-1.00;18517;293;7505150;-36
2023/08/12 02:24:55;;;;;;;2.40;2.20;;;;;;;-128.00;-1.00;-1.00;18499;294;7504547;-34
2023/08/12 02:27:21;;;;;;;4.90;4.50;;;;;;;-128.00;-1.00;-1.00;18505;293;7504552;-37
2023/08/12 02:29:47;;;;;;;5.80;4.80;;;;;;;-128.00;-1.00;-1.00;18495;293;7506240;-36
2023/08/12 02:32:12;;;;;;;5.10;4.60;;;;;;;-128.00;-1.00;-1.00;18501;293;7506805;-36
2023/08/12 02:34:38;;;;;;;7.40;5.30;;;;;;;-128.00;-1.00;-1.00;18913;294;7504682;-33
2023/08/12 02:37:04;;;;;;;4.60;4.00;;;;;;;-128.00;-1.00;-1.00;18903;293;7505047;-36
2023/08/12 02:39:30;;;;;;;5.10;3.60;;;;;;;-128.00;-1.00;-1.00;18918;293;7505064;-31
2023/08/12 02:41:57;;;;;;;6.20;5.00;;;;;;;-128.00;-1.00;-1.00;18908;293;7505044;-36
2023/08/12 02:44:23;;;;;;;18.50;6.00;;;;;;;-128.00;-1.00;-1.00;18857;302;7504369;-36
2023/08/12 02:46:49;;;;;;;6.30;5.80;;;;;;;-128.00;-1.00;-1.00;18926;294;7504726;-30
2023/08/12 02:49:15;;;;;;;3.90;3.50;;;;;;;-128.00;-1.00;-1.00;18908;293;7504402;-31
2023/08/12 02:51:41;;;;;;;5.50;4.30;;;;;;;-128.00;-1.00;-1.00;18914;293;7504377;-35
2023/08/12 02:54:08;;;;;;;8.70;6.40;;;;;;;-128.00;-1.00;-1.00;18911;293;7505176;-31
2023/08/12 02:56:34;;;;;;;11.10;5.20;;;;;;;-128.00;-1.00;-1.00;18497;294;7505961;-31
2023/08/12 02:59:00;;;;;;;3.90;2.60;;;;;;;-128.00;-1.00;-1.00;18513;293;7504941;-36
2023/08/12 03:01:27;;;;;;;4.00;3.30;;;;;;;-128.00;-1.00;-1.00;18930;294;7504677;-31
2023/08/12 03:03:53;;;;;;;3.40;3.10;;;;;;;-128.00;-1.00;-1.00;18451;293;7504478;-35
2023/08/12 03:06:18;;;;;;;4.20;2.30;;;;;;;-128.00;-1.00;-1.00;18528;293;7505757;-36
2023/08/12 03:08:44;;;;;;;4.00;3.60;;;;;;;-128.00;-1.00;-1.00;18502;293;7505032;-36
2023/08/12 03:11:10;;;;;;;3.50;2.60;;;;;;;-128.00;-1.00;-1.00;18874;294;7504637;-31
2023/08/12 03:13:36;;;;;;;14.90;4.30;;;;;;;-128.00;-1.00;-1.00;18926;294;7505550;-35
2023/08/12 03:16:03;;;;;;;5.50;4.90;;;;;;;-128.00;-1.00;-1.00;18927;334;7504641;-36
2023/08/12 03:18:29;;;;;;;9.10;5.00;;;;;;;-128.00;-1.00;-1.00;18913;293;7505179;-36
2023/08/12 03:20:55;;;;;;;5.00;4.30;;;;;;;-128.00;-1.00;-1.00;18876;293;7504615;-37
2023/08/12 03:23:21;;;;;;;4.90;4.20;;;;;;;-128.00;-1.00;-1.00;18907;293;7504375;-33
2023/08/12 03:25:48;;;;;;;6.20;4.80;;;;;;;-128.00;-1.00;-1.00;18924;293;7505119;-31
2023/08/12 03:28:14;;;;;;;6.10;5.50;;;;;;;-128.00;-1.00;-1.00;18509;293;7504781;-36
2023/08/12 03:30:40;;;;;;;5.30;4.80;;;;;;;-128.00;-1.00;-1.00;18480;293;7504347;-36
2023/08/12 03:33:06;;;;;;;13.30;4.70;;;;;;;-128.00;-1.00;-1.00;18895;294;7505812;-32
2023/08/12 03:35:32;;;;;;;6.40;5.80;;;;;;;-128.00;-1.00;-1.00;18881;293;7504848;-30
2023/08/12 03:37:58;;;;;;;8.70;7.40;;;;;;;-128.00;-1.00;-1.00;18903;293;7504509;-31
2023/08/12 03:40:25;;;;;;;12.70;7.10;;;;;;;-128.00;-1.00;-1.00;18903;293;7504959;-36
2023/08/12 03:42:51;;;;;;;6.40;5.60;;;;;;;-128.00;-1.00;-1.00;18907;293;7504629;-32
2023/08/12 03:45:17;;;;;;;9.70;5.90;;;;;;;-128.00;-1.00;-1.00;18880;293;7504348;-33
2023/08/12 03:47:44;;;;;;;6.30;5.80;;;;;;;-128.00;-1.00;-1.00;18903;293;7505315;-36
2023/08/12 03:50:10;;;;;;;6.10;5.60;;;;;;;-128.00;-1.00;-1.00;18910;294;7504968;-36
2023/08/12 03:52:36;;;;;;;7.10;6.10;;;;;;;-128.00;-1.00;-1.00;18918;293;7504384;-31
2023/08/12 03:55:03;;;;;;;8.10;6.00;;;;;;;-128.00;-1.00;-1.00;18889;293;7506547;-31
2023/08/12 03:57:29;;;;;;;5.40;4.90;;;;;;;-128.00;-1.00;-1.00;18477;294;7505581;-36
2023/08/12 03:59:55;;;;;;;4.10;3.20;;;;;;;-128.00;-1.00;-1.00;18499;293;7504405;-31
2023/08/12 04:02:20;;;;;;;5.40;4.90;;;;;;;-128.00;-1.00;-1.00;18483;294;7504328;-32
2023/08/12 04:04:46;;;;;;;10.60;5.60;;;;;;;-128.00;-1.00;-1.00;18511;293;7504964;-36
2023/08/12 04:07:12;;;;;;;8.10;6.40;;;;;;;-128.00;-1.00;-1.00;18464;293;7505837;-32
2023/08/12 04:09:37;;;;;;;6.70;6.00;;;;;;;-128.00;-1.00;-1.00;18468;294;7505917;-32
2023/08/12 04:12:04;;;;;;;8.60;5.60;;;;;;;-128.00;-1.00;-1.00;18873;293;7504355;-31
2023/08/12 04:14:30;;;;;;;6.00;5.20;;;;;;;-128.00;-1.00;-1.00;18873;294;7504454;-35
2023/08/12 04:16:56;;;;;;;6.00;5.40;;;;;;;-128.00;-1.00;-1.00;18885;286;7505187;-35
2023/08/12 04:19:22;;;;;;;9.60;5.70;;;;;;;-128.00;-1.00;-1.00;18919;293;7504624;-35
2023/08/12 04:21:49;;;;;;;5.40;4.70;;;;;;;-128.00;-1.00;-1.00;18906;294;7505917;-33
2023/08/12 04:24:15;;;;;;;8.90;5.10;;;;;;;-128.00;-1.00;-1.00;18873;293;7504465;-35
2023/08/12 04:26:41;;;;;;;8.10;4.90;;;;;;;-128.00;-1.00;-1.00;18900;293;7504635;-35
2023/08/12 04:29:07;;;;;;;16.30;5.70;;;;;;;-128.00;-1.00;-1.00;18893;293;7504656;-30
2023/08/12 04:31:33;;;;;;;5.60;4.60;;;;;;;-128.00;-1.00;-1.00;18903;293;7504838;-30
2023/08/12 04:33:59;;;;;;;7.30;5.60;;;;;;;-128.00;-1.00;-1.00;18878;294;7504670;-31
2023/08/12 04:36:26;;;;;;;5.90;5.20;;;;;;;-128.00;-1.00;-1.00;18888;293;7504766;-30
2023/08/12 04:38:53;;;;;;;8.00;5.40;;;;;;;-128.00;-1.00;-1.00;18870;293;7505214;-30
2023/08/12 04:41:18;;;;;;;5.40;4.90;;;;;;;-128.00;-1.00;-1.00;18509;293;7504569;-31
2023/08/12 04:43:44;;;;;;;5.60;4.10;;;;;;;-128.00;-1.00;-1.00;18495;320;7504581;-32
2023/08/12 04:46:10;;;;;;;5.70;4.60;;;;;;;-128.00;-1.00;-1.00;18891;286;7505262;-31
2023/08/12 04:48:36;;;;;;;5.00;3.90;;;;;;;-128.00;-1.00;-1.00;18886;294;7504562;-31
2023/08/12 04:51:05;;;;;;;4.30;3.90;;;;;;;-128.00;-1.00;-1.00;18895;294;7504779;-35
2023/08/12 04:53:30;;;;;;;5.30;4.30;;;;;;;-128.00;-1.00;-1.00;18507;293;7505798;-30
2023/08/12 04:55:56;;;;;;;6.20;4.30;;;;;;;-128.00;-1.00;-1.00;18859;282;7504535;-35
2023/08/12 04:58:23;;;;;;;14.20;4.70;;;;;;;-128.00;-1.00;-1.00;18868;345;7505042;-31
2023/08/12 05:00:50;;;;;;;6.90;3.80;;;;;;;-128.00;-1.00;-1.00;18903;294;7505405;-32
2023/08/12 05:03:16;;;;;;;7.60;4.40;;;;;;;-128.00;-1.00;-1.00;18473;293;7504399;-35
2023/08/12 05:05:42;;;;;;;9.00;4.40;;;;;;;-128.00;-1.00;-1.00;18486;294;7505170;-35
2023/08/12 05:08:08;;;;;;;3.90;3.60;;;;;;;-128.00;-1.00;-1.00;18875;294;7505195;-35
2023/08/12 05:10:34;;;;;;;7.70;3.90;;;;;;;-128.00;-1.00;-1.00;18895;282;7504745;-31
2023/08/12 05:13:00;;;;;;;6.90;4.10;;;;;;;-128.00;-1.00;-1.00;18876;297;7504720;-34
2023/08/12 05:15:26;;;;;;;5.40;3.90;;;;;;;-128.00;-1.00;-1.00;18872;345;7505149;-31
2023/08/12 05:17:53;;;;;;;5.40;4.20;;;;;;;-128.00;-1.00;-1.00;18907;294;7504987;-35
2023/08/12 05:20:19;;;;;;;7.90;4.20;;;;;;;-128.00;-1.00;-1.00;18892;293;7504091;-35
2023/08/12 05:22:45;;;;;;;5.50;3.20;;;;;;;-128.00;-1.00;-1.00;18874;347;7504946;-32
2023/08/12 05:25:11;;;;;;;6.10;3.50;;;;;;;-128.00;-1.00;-1.00;18876;293;7504402;-32
2023/08/12 05:27:38;;;;;;;5.20;3.10;;;;;;;-128.00;-1.00;-1.00;18879;294;7504939;-31
2023/08/12 05:30:04;;;;;;;3.40;3.10;;;;;;;-128.00;-1.00;-1.00;18508;294;7505012;-32
2023/08/12 05:32:30;;;;;;;6.10;3.00;;;;;;;-128.00;-1.00;-1.00;18488;293;7504350;-36
2023/08/12 05:34:55;;;;;;;4.40;3.20;;;;;;;-128.00;-1.00;-1.00;18521;293;7505805;-35
2023/08/12 05:37:22;;;;;;;5.30;3.10;;;;;;;-128.00;-1.00;-1.00;18912;293;7504810;-35
2023/08/12 05:39:48;;;;;;;4.60;2.70;;;;;;;-128.00;-1.00;-1.00;18891;293;7504679;-35
2023/08/12 05:42:14;;;;;;;3.30;2.50;;;;;;;-128.00;-1.00;-1.00;18895;294;7505196;-32
2023/08/12 05:44:42;;;;;;;4.80;3.50;;;;;;;-128.00;-1.00;-1.00;18897;294;7504352;-32
2023/08/12 05:47:07;;;;;;;5.60;3.10;;;;;;;-128.00;-1.00;-1.00;18485;294;7505610;-37
2023/08/12 05:49:33;;;;;;;10.20;3.10;;;;;;;-128.00;-1.00;-1.00;18507;294;7505734;-33
2023/08/12 05:51:58;;;;;;;7.90;3.00;;;;;;;-128.00;-1.00;-1.00;18523;294;7506632;-36
2023/08/12 05:54:24;;;;;;;5.30;3.30;;;;;;;-128.00;-1.00;-1.00;18880;293;7504290;-36
2023/08/12 05:56:51;;;;;;;4.30;2.70;;;;;;;-128.00;-1.00;-1.00;18920;293;7504609;-33
2023/08/12 05:59:17;;;;;;;5.60;2.50;;;;;;;-128.00;-1.00;-1.00;18896;293;7504367;-33
2023/08/12 06:01:43;;;;;;;3.00;2.30;;;;;;;-128.00;-1.00;-1.00;18893;281;7506387;-36
2023/08/12 06:04:10;;;;;;;5.10;2.90;;;;;;;-128.00;-1.00;-1.00;18938;293;7505151;-32
2023/08/12 06:06:36;;;;;;;3.40;2.20;;;;;;;-128.00;-1.00;-1.00;18937;293;7504807;-36
2023/08/12 06:09:03;;;;;;;4.70;2.50;;;;;;;-128.00;-1.00;-1.00;18915;293;7504667;-31
2023/08/12 06:11:28;;;;;;;2.80;2.40;;;;;;;-128.00;-1.00;-1.00;18537;293;7504364;-35
2023/08/12 06:13:54;;;;;;;2.80;2.40;;;;;;;-128.00;-1.00;-1.00;18511;293;7506794;-35
2023/08/12 06:16:20;;;;;;;3.10;2.30;;;;;;;-128.00;-1.00;-1.00;18909;293;7504708;-35
2023/08/12 06:18:47;;;;;;;3.10;2.70;;;;;;;-128.00;-1.00;-1.00;18927;337;7504854;-31
2023/08/12 06:21:12;;;;;;;3.70;2.30;;;;;;;-128.00;-1.00;-1.00;18526;294;7504675;-31
2023/08/12 06:23:38;;;;;;;3.50;2.60;;;;;;;-128.00;-1.00;-1.00;18908;293;7504579;-35
2023/08/12 06:26:05;;;;;;;7.60;2.20;;;;;;;-128.00;-1.00;-1.00;18900;293;7504371;-35
2023/08/12 06:28:31;;;;;;;4.00;1.90;;;;;;;-128.00;-1.00;-1.00;18891;293;7505162;-32
2023/08/12 06:30:58;;;;;;;2.20;2.00;;;;;;;-128.00;-1.00;-1.00;18889;293;7504163;-32
2023/08/12 06:33:23;;;;;;;3.10;1.40;;;;;;;-128.00;-1.00;-1.00;18490;294;7505108;-35
2023/08/12 06:35:50;;;;;;;3.80;1.80;;;;;;;-128.00;-1.00;-1.00;18897;305;7506313;-31
2023/08/12 06:38:16;;;;;;;2.40;1.40;;;;;;;-128.00;-1.00;-1.00;18476;294;7504384;-35
2023/08/12 06:40:42;;;;;;;1.80;1.50;;;;;;;-128.00;-1.00;-1.00;18493;293;7505993;-31
2023/08/12 06:43:09;;;;;;;3.60;2.00;;;;;;;-128.00;-1.00;-1.00;18875;294;7504812;-36
2023/08/12 06:45:35;;;;;;;2.10;1.80;;;;;;;-128.00;-1.00;-1.00;18877;293;7505350;-36
2023/08/12 06:48:04;;;;;;;2.40;1.40;;;;;;;-128.00;-1.00;-1.00;18900;294;7505320;-32
2023/08/12 06:50:31;;;;;;;2.30;2.00;;;;;;;-128.00;-1.00;-1.00;18491;294;7504695;-36
2023/08/12 06:52:57;;;;;;;2.70;2.20;;;;;;;-128.00;-1.00;-1.00;18497;293;7506060;-32
2023/08/12 06:55:23;;;;;;;3.50;1.60;;;;;;;-128.00;-1.00;-1.00;18508;293;7505329;-32
2023/08/12 06:57:49;;;;;;;2.00;1.70;;;;;;;-128.00;-1.00;-1.00;18866;294;7505137;-32
2023/08/12 07:00:15;;;;;;;3.70;1.70;;;;;;;-128.00;-1.00;-1.00;18931;293;7504622;-32
2023/08/12 07:02:42;;;;;;;3.00;1.90;;;;;;;-128.00;-1.00;-1.00;18874;293;7504820;-32
2023/08/12 07:05:08;;;;;;;2.60;1.50;;;;;;;-128.00;-1.00;-1.00;18525;293;7506036;-32
2023/08/12 07:07:34;;;;;;;3.00;1.40;;;;;;;-128.00;-1.00;-1.00;18505;294;7504433;-32
2023/08/12 07:10:00;;;;;;;4.30;0.90;;;;;;;-128.00;-1.00;-1.00;18509;293;7504253;-36
2023/08/12 07:12:26;;;;;;;4.30;1.50;;;;;;;-128.00;-1.00;-1.00;18883;294;7505412;-32
2023/08/12 07:14:52;;;;;;;2.60;1.40;;;;;;;-128.00;-1.00;-1.00;18889;293;7505181;-32
2023/08/12 07:17:18;;;;;;;1.70;1.10;;;;;;;-128.00;-1.00;-1.00;18925;293;7504399;-36
2023/08/12 07:19:45;;;;;;;3.40;1.60;;;;;;;-128.00;-1.00;-1.00;18936;293;7505558;-33
2023/08/12 07:22:11;;;;;;;2.30;1.30;;;;;;;-128.00;-1.00;-1.00;18862;345;7507296;-32
2023/08/12 07:24:37;;;;;;;2.30;1.10;;;;;;;-128.00;-1.00;-1.00;18880;293;7505289;-36
2023/08/12 07:27:03;;;;;;;1.10;0.90;;;;;;;-128.00;-1.00;-1.00;18887;294;7505085;-36
2023/08/12 07:29:29;;;;;;;3.80;1.30;;;;;;;-128.00;-1.00;-1.00;18910;293;7505385;-36
2023/08/12 07:31:56;;;;;;;1.50;1.10;;;;;;;-128.00;-1.00;-1.00;18917;293;7505147;-36
2023/08/12 07:34:22;;;;;;;4.10;1.70;;;;;;;-128.00;-1.00;-1.00;18913;293;7504747;-36
2023/08/12 07:36:48;;;;;;;2.20;1.30;;;;;;;-128.00;-1.00;-1.00;18895;293;7504643;-36
2023/08/12 07:39:15;;;;;;;3.50;1.40;;;;;;;-128.00;-1.00;-1.00;18878;293;7504939;-32
2023/08/12 07:41:41;;;;;;;3.80;1.70;;;;;;;-128.00;-1.00;-1.00;18912;293;7504556;-36
2023/08/12 07:44:07;;;;;;;2.20;1.60;;;;;;;-128.00;-1.00;-1.00;18941;293;7504414;-36
2023/08/12 07:46:33;;;;;;;3.10;1.20;;;;;;;-128.00;-1.00;-1.00;18505;293;7504209;-36
2023/08/12 07:48:59;;;;;;;6.40;1.00;;;;;;;-128.00;-1.00;-1.00;18457;294;7507053;-32
2023/08/12 07:51:25;;;;;;;2.50;1.50;;;;;;;-128.00;-1.00;-1.00;18948;294;7504862;-32
2023/08/12 07:53:51;;;;;;;1.90;1.40;;;;;;;-128.00;-1.00;-1.00;18919;282;7504279;-32
2023/08/12 07:56:17;;;;;;;1.80;1.20;;;;;;;-128.00;-1.00;-1.00;18889;293;7505119;-33
2023/08/12 07:58:45;;;;;;;4.30;1.50;;;;;;;-128.00;-1.00;-1.00;18896;293;7504488;-32
2023/08/12 08:01:11;;;;;;;0.80;0.70;;;;;;;-128.00;-1.00;-1.00;18476;293;7506047;-32
2023/08/12 08:03:36;;;;;;;1.90;1.10;;;;;;;-128.00;-1.00;-1.00;18496;293;7504673;-36
2023/08/12 08:06:02;;;;;;;2.20;1.50;;;;;;;-128.00;-1.00;-1.00;18476;293;7504824;-36
2023/08/12 08:08:28;;;;;;;1.40;1.20;;;;;;;-128.00;-1.00;-1.00;18514;293;7504891;-32
2023/08/12 08:10:54;;;;;;;3.80;1.50;;;;;;;-128.00;-1.00;-1.00;18881;333;7504209;-32
2023/08/12 08:13:20;;;;;;;4.60;1.10;;;;;;;-128.00;-1.00;-1.00;18942;282;7504168;-36
2023/08/12 08:15:46;;;;;;;3.90;1.10;;;;;;;-128.00;-1.00;-1.00;18871;334;7505178;-34
2023/08/12 08:18:12;;;;;;;2.40;1.00;;;;;;;-128.00;-1.00;-1.00;18908;286;7504984;-33
2023/08/12 08:20:41;;;;;;;2.20;1.40;;;;;;;-128.00;-1.00;-1.00;18923;293;7505237;-35
2023/08/12 08:23:07;;;;;;;2.00;1.00;;;;;;;-128.00;-1.00;-1.00;18475;335;7504907;-32
2023/08/12 08:25:32;;;;;;;1.30;1.10;;;;;;;-128.00;-1.00;-1.00;18491;293;7504272;-32
2023/08/12 08:27:58;;;;;;;1.80;1.00;;;;;;;-128.00;-1.00;-1.00;18505;294;7505616;-33
2023/08/12 08:30:25;;;;;;;1.50;1.10;;;;;;;-128.00;-1.00;-1.00;18492;293;7506174;-32
2023/08/12 08:32:51;;;;;;;2.20;1.20;;;;;;;-128.00;-1.00;-1.00;18484;294;7505079;-32
2023/08/12 08:35:17;;;;;;;23.30;1.40;;;;;;;-128.00;-1.00;-1.00;18469;317;7504881;-32
2023/08/12 08:37:43;;;;;;;2.20;1.10;;;;;;;-128.00;-1.00;-1.00;18503;293;7505915;-36
2023/08/12 08:40:09;;;;;;;6.60;1.60;;;;;;;-128.00;-1.00;-1.00;18525;293;7506931;-32
2023/08/12 08:42:35;;;;;;;2.10;0.90;;;;;;;-128.00;-1.00;-1.00;18525;293;7504744;-36
2023/08/12 08:45:02;;;;;;;3.20;1.80;;;;;;;-128.00;-1.00;-1.00;18494;293;7504921;-36
2023/08/12 08:47:27;;;;;;;3.40;0.90;;;;;;;-128.00;-1.00;-1.00;18499;294;7506257;-36
2023/08/12 08:49:55;;;;;;;1.20;0.90;;;;;;;-128.00;-1.00;-1.00;18876;293;7505927;-34
2023/08/12 08:52:22;;;;;;;1.10;0.90;;;;;;;-128.00;-1.00;-1.00;18498;297;7504539;-36
2023/08/12 08:54:47;;;;;;;0.60;0.50;;;;;;;-128.00;-1.00;-1.00;18495;294;7507497;-36
2023/08/12 08:57:14;;;;;;;2.30;1.10;;;;;;;-128.00;-1.00;-1.00;18478;294;7507837;-32
2023/08/12 08:59:40;;;;;;;1.90;0.80;;;;;;;-128.00;-1.00;-1.00;18917;293;7504388;-36
2023/08/12 09:02:06;;;;;;;1.20;0.80;;;;;;;-128.00;-1.00;-1.00;18918;293;7504937;-36
2023/08/12 09:04:33;;;;;;;0.90;0.60;;;;;;;-128.00;-1.00;-1.00;18873;294;7504755;-32
2023/08/12 09:06:59;;;;;;;2.80;1.10;;;;;;;-128.00;-1.00;-1.00;18904;281;7505142;-35
2023/08/12 09:09:25;;;;;;;1.60;0.90;;;;;;;-128.00;-1.00;-1.00;18913;293;7505648;-31
2023/08/12 09:11:52;;;;;;;1.60;0.80;;;;;;;-128.00;-1.00;-1.00;18897;293;7504369;-35
2023/08/12 09:14:18;;;;;;;1.30;1.00;;;;;;;-128.00;-1.00;-1.00;18490;294;7504944;-35
2023/08/12 09:16:44;;;;;;;1.10;0.90;;;;;;;-128.00;-1.00;-1.00;18501;293;7504628;-32
2023/08/12 09:19:10;;;;;;;1.60;0.80;;;;;;;-128.00;-1.00;-1.00;18894;294;7504849;-34
2023/08/12 09:21:36;;;;;;;1.30;0.70;;;;;;;-128.00;-1.00;-1.00;18425;294;7504640;-32
2023/08/12 09:24:04;;;;;;;0.80;0.60;;;;;;;-128.00;-1.00;-1.00;18895;293;7504494;-34
2023/08/12 09:26:30;;;;;;;1.60;0.70;;;;;;;-128.00;-1.00;-1.00;18496;294;7504955;-35
2023/08/12 09:28:56;;;;;;;2.60;1.10;;;;;;;-128.00;-1.00;-1.00;18877;294;7504935;-32
2023/08/12 09:31:24;;;;;;;1.50;0.90;;;;;;;-128.00;-1.00;-1.00;18872;294;7504929;-36
2023/08/12 09:33:50;;;;;;;3.20;1.40;;;;;;;-128.00;-1.00;-1.00;18480;293;7504506;-35
2023/08/12 09:36:16;;;;;;;0.70;0.70;;;;;;;-128.00;-1.00;-1.00;18474;294;7504362;-32
2023/08/12 09:38:42;;;;;;;1.20;0.70;;;;;;;-128.00;-1.00;-1.00;18498;293;7505038;-32
2023/08/12 09:41:08;;;;;;;1.30;0.60;;;;;;;-128.00;-1.00;-1.00;18478;345;7504464;-33
2023/08/12 09:43:33;;;;;;;1.20;0.80;;;;;;;-128.00;-1.00;-1.00;18538;293;7505789;-32
2023/08/12 09:45:59;;;;;;;1.40;0.80;;;;;;;-128.00;-1.00;-1.00;18523;285;7506336;-32
2023/08/12 09:48:25;;;;;;;0.60;0.60;;;;;;;-128.00;-1.00;-1.00;18494;337;7504567;-36
2023/08/12 09:50:52;;;;;;;0.70;0.60;;;;;;;-128.00;-1.00;-1.00;18460;302;7506263;-35
2023/08/12 09:53:18;;;;;;;1.80;0.90;;;;;;;-128.00;-1.00;-1.00;18503;334;7506645;-32
2023/08/12 09:55:44;;;;;;;1.60;1.00;;;;;;;-128.00;-1.00;-1.00;18903;293;7504832;-35
2023/08/12 09:58:11;;;;;;;3.50;1.10;;;;;;;-128.00;-1.00;-1.00;18911;293;7504938;-36
2023/08/12 10:00:37;;;;;;;5.50;1.00;;;;;;;-128.00;-1.00;-1.00;18495;294;7506192;-32
2023/08/12 10:03:04;;;;;;;3.80;0.90;;;;;;;-128.00;-1.00;-1.00;18914;286;7504165;-32
2023/08/12 10:05:33;;;;;;;0.70;0.70;;;;;;;-128.00;-1.00;-1.00;18523;293;7505835;-36
2023/08/12 10:08:01;;;;;;;5.90;0.70;;;;;;;-128.00;-1.00;-1.00;18483;294;7504781;-36
2023/08/12 10:10:27;;;;;;;1.20;1.00;;;;;;;-128.00;-1.00;-1.00;18502;293;7504422;-32
2023/08/12 10:12:53;;;;;;;5.50;1.20;;;;;;;-128.00;-1.00;-1.00;18910;293;7504904;-36
2023/08/12 10:15:19;;;;;;;1.20;1.00;;;;;;;-128.00;-1.00;-1.00;18509;294;7505724;-35
2023/08/12 10:17:45;;;;;;;0.90;0.70;;;;;;;-128.00;-1.00;-1.00;18890;293;7505472;-36
2023/08/12 10:20:20;;;;;;;2.00;1.00;;;;;;;-128.00;-1.00;-1.00;18920;293;7504516;-31
2023/08/12 10:22:46;;;;;;;0.90;0.80;;;;;;;-128.00;-1.00;-1.00;18478;293;7505004;-36
2023/08/12 10:25:11;;;;;;;1.70;0.80;;;;;;;-128.00;-1.00;-1.00;18496;288;7506218;-36
2023/08/12 10:27:38;;;;;;;1.10;1.00;;;;;;;-128.00;-1.00;-1.00;18494;334;7505006;-33
2023/08/12 10:30:04;;;;;;;0.90;0.60;;;;;;;-128.00;-1.00;-1.00;18481;294;7506014;-33
2023/08/12 10:32:31;;;;;;;1.80;0.90;;;;;;;-128.00;-1.00;-1.00;18495;293;7504580;-33
2023/08/12 10:34:57;;;;;;;1.00;0.80;;;;;;;-128.00;-1.00;-1.00;18519;294;7505717;-36
2023/08/12 10:37:26;;;;;;;1.10;0.90;;;;;;;-128.00;-1.00;-1.00;18516;293;7504492;-36
2023/08/12 10:39:53;;;;;;;1.00;0.80;;;;;;;-128.00;-1.00;-1.00;18513;338;7504869;-33
2023/08/12 10:42:43;;;;;;;1.60;1.50;;;;;;;-128.00;-1.00;-1.00;18513;293;7504410;-34
2023/08/12 10:45:10;;;;;;;2.90;0.90;;;;;;;-128.00;-1.00;-1.00;18508;293;7504316;-31
2023/08/12 10:47:48;;;;;;;0.80;0.70;;;;;;;-128.00;-1.00;-1.00;18502;293;7504753;-32
2023/08/12 10:50:18;;;;;;;2.60;0.70;;;;;;;-128.00;-1.00;-1.00;18538;293;7504676;-36
2023/08/12 10:52:45;;;;;;;0.60;0.50;;;;;;;-128.00;-1.00;-1.00;18519;293;7504373;-32
2023/08/12 10:55:22;;;;;;;1.00;0.70;;;;;;;-128.00;-1.00;-1.00;18507;293;7504478;-35
2023/08/12 10:57:49;;;;;;;1.10;0.90;;;;;;;-128.00;-1.00;-1.00;18530;293;7504946;-32
2023/08/12 11:00:21;;;;;;;0.80;0.60;;;;;;;-128.00;-1.00;-1.00;18518;294;7504738;-36
2023/08/12 11:02:51;;;;;;;1.10;1.00;;;;;;;-128.00;-1.00;-1.00;18476;296;7505126;-32
2023/08/12 11:05:20;;;;;;;1.30;0.80;;;;;;;-128.00;-1.00;-1.00;18540;294;7506403;-32
2023/08/12 11:07:49;;;;;;;1.90;1.10;;;;;;;-128.00;-1.00;-1.00;18527;293;7504889;-35
2023/08/12 11:10:27;;;;;;;0.50;0.50;;;;;;;-128.00;-1.00;-1.00;18517;294;7504426;-35
2023/08/12 11:12:55;;;;;;;10.20;0.70;;;;;;;-128.00;-1.00;-1.00;18509;293;7504515;-33
2023/08/12 11:15:34;;;;;;;1.80;1.10;;;;;;;-128.00;-1.00;-1.00;18500;293;7504491;-32
2023/08/12 11:18:10;;;;;;;2.10;1.00;;;;;;;-128.00;-1.00;-1.00;18478;294;7505870;-31
2023/08/12 11:20:36;;;;;;;0.70;0.70;;;;;;;-128.00;-1.00;-1.00;18497;317;7506216;-35
2023/08/12 11:23:03;;;;;;;1.00;0.90;;;;;;;-128.00;-1.00;-1.00;18506;293;7506312;-32
2023/08/12 11:25:29;;;;;;;6.70;1.40;;;;;;;-128.00;-1.00;-1.00;18510;293;7504386;-32
2023/08/12 11:27:55;;;;;;;1.30;0.90;;;;;;;-128.00;-1.00;-1.00;18505;337;7504296;-32
2023/08/12 11:30:22;;;;;;;0.90;0.70;;;;;;;-128.00;-1.00;-1.00;18509;293;7504480;-35
2023/08/12 11:32:49;;;;;;;1.00;0.50;;;;;;;-128.00;-1.00;-1.00;18521;293;7504801;-35
2023/08/12 11:35:17;;;;;;;1.10;0.80;;;;;;;-128.00;-1.00;-1.00;18497;293;7506073;-36
2023/08/12 11:37:45;;;;;;;0.70;0.60;;;;;;;-128.00;-1.00;-1.00;18483;286;7506369;-32
2023/08/12 11:40:11;;;;;;;1.80;1.00;;;;;;;-128.00;-1.00;-1.00;18503;294;7504686;-35
2023/08/12 11:42:38;;;;;;;3.20;1.00;;;;;;;-128.00;-1.00;-1.00;18486;294;7506351;-31
2023/08/12 11:45:05;;;;;;;1.70;0.80;;;;;;;-128.00;-1.00;-1.00;18481;341;7504349;-32
2023/08/12 11:47:31;;;;;;;2.10;1.00;;;;;;;-128.00;-1.00;-1.00;18506;337;7504736;-35
2023/08/12 11:49:57;;;;;;;0.80;0.70;;;;;;;-128.00;-1.00;-1.00;18501;294;7504606;-32
2023/08/12 11:52:23;;;;;;;1.50;0.80;;;;;;;-128.00;-1.00;-1.00;18894;293;7505277;-36
2023/08/12 11:54:50;;;;;;;0.80;0.70;;;;;;;-128.00;-1.00;-1.00;18880;293;7504545;-33
2023/08/12 11:57:16;;;;;;;2.30;0.90;;;;;;;-128.00;-1.00;-1.00;18532;293;7504939;-32
2023/08/12 11:59:43;;;;;;;0.70;0.50;;;;;;;-128.00;-1.00;-1.00;18480;294;7504788;-32
2023/08/12 12:02:10;;;;;;;1.30;1.20;;;;;;;-128.00;-1.00;-1.00;18513;293;7505976;-32
2023/08/12 12:04:35;;;;;;;1.00;0.90;;;;;;;-128.00;-1.00;-1.00;18458;298;7504851;-35
2023/08/12 12:07:06;;;;;;;1.30;0.60;;;;;;;-128.00;-1.00;-1.00;18892;281;7504483;-35
2023/08/12 12:09:34;;;;;;;1.00;0.80;;;;;;;-128.00;-1.00;-1.00;18502;294;7504656;-32
2023/08/12 12:12:00;;;;;;;0.90;0.50;;;;;;;-128.00;-1.00;-1.00;18509;293;7504379;-31
2023/08/12 12:14:26;;;;;;;1.20;0.70;;;;;;;-128.00;-1.00;-1.00;18515;293;7504815;-32
2023/08/12 12:16:52;;;;;;;1.10;0.70;;;;;;;-128.00;-1.00;-1.00;18892;293;7504233;-35